Garvin, Minnesota
Current Conditions -  °F | °C
As of 2:53 PM on Thursday 23 Oct 2014 (Local Time) from KTKC Reporting Station
Clear Clear  
Wind Chill: 71°   Ceiling: Unl
Heat Index: 71°   Visibility: 10mi
Dew Point: 37°   Wind: 7mph
Humidity: 29%   Direction: 240°WSW
Pressure: 29.96"   Gusts: NA
Location:  44.21°N, 95.76°W
Report Text: KTKC 231953Z AUTO 24006KT 10SM CLR 22/03 A2996 RMK AO2 T02150029
Loading
Personal Weather Stations






























Interactive Weather Map
Tropical Storm Tracking
New forecast layout! Learn more

10-Day Weather Forecast

Advertisements
Track Severe Weather on mobile